Map

Track Data

SID SEASON NUMBER BASIN SUBBASIN NAME ISO_TIME NATURE LAT LON WMO_WIND WMO_PRES WMO_AGENCY TRACK_TYPE DIST2LAND LANDFALL IFLAG USA_AGENCY USA_ATCF_ID USA_LAT USA_LON USA_RECORD USA_STATUS USA_WIND USA_PRES USA_SSHS USA_R34_NE USA_R34_SE USA_R34_SW USA_R34_NW USA_R50_NE USA_R50_SE USA_R50_SW USA_R50_NW USA_R64_NE USA_R64_SE USA_R64_SW USA_R64_NW USA_POCI USA_ROCI USA_RMW USA_EYE TOKYO_LAT TOKYO_LON TOKYO_GRADE TOKYO_WIND TOKYO_PRES TOKYO_R50_DIR TOKYO_R50_LONG TOKYO_R50_SHORT TOKYO_R30_DIR TOKYO_R30_LONG TOKYO_R30_SHORT TOKYO_LAND CMA_LAT CMA_LON CMA_CAT CMA_WIND CMA_PRES HKO_LAT HKO_LON HKO_CAT HKO_WIND HKO_PRES NEWDELHI_LAT NEWDELHI_LON NEWDELHI_GRADE NEWDELHI_WIND NEWDELHI_PRES NEWDELHI_CI NEWDELHI_DP NEWDELHI_POCI REUNION_LAT REUNION_LON REUNION_TYPE REUNION_WIND REUNION_PRES REUNION_TNUM REUNION_CI REUNION_RMW REUNION_R34_NE REUNION_R34_SE REUNION_R34_SW REUNION_R34_NW REUNION_R50_NE REUNION_R50_SE REUNION_R50_SW REUNION_R50_NW REUNION_R64_NE REUNION_R64_SE REUNION_R64_SW REUNION_R64_NW BOM_LAT BOM_LON BOM_TYPE BOM_WIND BOM_PRES BOM_TNUM BOM_CI BOM_RMW BOM_R34_NE BOM_R34_SE BOM_R34_SW BOM_R34_NW BOM_R50_NE BOM_R50_SE BOM_R50_SW BOM_R50_NW BOM_R64_NE BOM_R64_SE BOM_R64_SW BOM_R64_NW BOM_ROCI BOM_POCI BOM_EYE BOM_POS_METHOD BOM_PRES_METHOD NADI_LAT NADI_LON NADI_CAT NADI_WIND NADI_PRES WELLINGTON_LAT WELLINGTON_LON WELLINGTON_WIND WELLINGTON_PRES DS824_LAT DS824_LON DS824_STAGE DS824_WIND DS824_PRES TD9636_LAT TD9636_LON TD9636_STAGE TD9636_WIND TD9636_PRES TD9635_LAT TD9635_LON TD9635_WIND TD9635_PRES TD9635_ROCI NEUMANN_LAT NEUMANN_LON NEUMANN_CLASS NEUMANN_WIND NEUMANN_PRES MLC_LAT MLC_LON MLC_CLASS MLC_WIND MLC_PRES USA_GUST BOM_GUST BOM_GUST_PER REUNION_GUST REUNION_GUST_PER USA_SEAHGT USA_SEARAD_NE USA_SEARAD_SE USA_SEARAD_SW USA_SEARAD_NW STORM_SPEED STORM_DIR
1980266N16257 1980 80 EP MM LESTER 1980-09-21 18:00:00 TS 16.2000 -103.100 30 hurdat_epa main 208 200 O________OO___ hurdat_epa EP121980 16.2000 -103.100 TD 30 -1 16.2000 -103.100 TC 30 16.2000 -103.100 1 30 10 291
1980266N16257 1980 80 EP MM LESTER 1980-09-21 21:00:00 TS 16.3811 -103.590 main 204 200 P________PP___ EP121980 16.3852 -103.590 TD 30 -1 16.3852 -103.590 TC 30 16.3647 -103.593 1 30 10 287
1980266N16257 1980 80 EP MM LESTER 1980-09-22 00:00:00 TS 16.5000 -104.100 30 hurdat_epa main 211 211 O________OO___ hurdat_epa EP121980 16.5000 -104.100 TD 30 -1 16.5000 -104.100 TC 30 16.5000 -104.100 1 30 10 278
1980266N16257 1980 80 EP MM LESTER 1980-09-22 03:00:00 TS 16.5231 -104.640 main 232 232 P________PP___ EP121980 16.5074 -104.643 TD 30 -1 16.5074 -104.643 TC 30 16.5856 -104.631 1 30 11 271
1980266N16257 1980 80 EP MM LESTER 1980-09-22 06:00:00 TS 16.5268 -105.196 30 hurdat_epa main 270 270 O________OP___ hurdat_epa EP121980 16.5000 -105.200 TD 30 -1 16.5000 -105.200 TC 30 16.6338 -105.180 1 30 11 275
1980266N16257 1980 80 EP MM LESTER 1980-09-22 09:00:00 TS 16.6069 -105.748 main 301 301 P________PP___ EP121980 16.5924 -105.750 TD 30 -1 16.5924 -105.750 TC 30 16.6651 -105.739 1 30 11 279
1980266N16257 1980 80 EP MM LESTER 1980-09-22 12:00:00 TS 16.7000 -106.300 30 hurdat_epa main 321 321 O________OO___ hurdat_epa EP121980 16.7000 -106.300 TD 30 -1 16.7000 -106.300 TC 30 16.7000 -106.300 1 30 11 278
1980266N16257 1980 80 EP MM LESTER 1980-09-22 15:00:00 TS 16.7527 -106.859 main 348 348 P________PP___ EP121980 16.7499 -106.850 TD 32 -1 16.7499 -106.850 TC 32 16.7640 -106.895 1 31 11 276
1980266N16257 1980 80 EP MM LESTER 1980-09-22 18:00:00 TS 16.8071 -107.416 35 hurdat_epa main 384 384 O________OP___ hurdat_epa EP121980 16.8000 -107.400 TS 35 0 16.8000 -107.400 TC 35 16.8355 -107.482 1 32 11 277
1980266N16257 1980 80 EP MM LESTER 1980-09-22 21:00:00 TS 16.8909 -107.996 main 422 422 P________PP___ EP121980 16.8851 -107.987 TS 35 0 16.8851 -107.987 TC 35 16.9141 -108.029 1 33 11 281
1980266N16257 1980 80 EP MM LESTER 1980-09-23 00:00:00 TS 17.0000 -108.500 35 hurdat_epa main 453 453 O________OO___ hurdat_epa EP121980 17.0000 -108.500 TS 35 0 17.0000 -108.500 TC 35 17.0000 -108.500 2 35 9 287
1980266N16257 1980 80 EP MM LESTER 1980-09-23 03:00:00 TS 17.1459 -108.851 main 478 471 P________PP___ EP121980 17.1573 -108.845 TS 35 0 17.1573 -108.845 TC 35 17.1002 -108.874 2 35 7 296
1980266N16257 1980 80 EP MM LESTER 1980-09-23 06:00:00 TS 17.2813 -109.114 35 hurdat_epa main 482 482 O________OP___ hurdat_epa EP121980 17.3000 -109.100 TS 35 0 17.3000 -109.100 TC 35 17.2067 -109.170 2 35 5 293
1980266N16257 1980 80 EP MM LESTER 1980-09-23 09:00:00 TS 17.3539 -109.373 main 503 503 P________PP___ EP121980 17.3650 -109.365 TS 35 0 17.3650 -109.365 TC 35 17.3098 -109.406 2 35 5 284
1980266N16257 1980 80 EP MM LESTER 1980-09-23 12:00:00 TS 17.4000 -109.600 35 hurdat_epa main 520 520 O________OO___ hurdat_epa EP121980 17.4000 -109.600 TS 35 0 17.4000 -109.600 TC 35 17.4000 -109.600 2 35 4 283
1980266N16257 1980 80 EP MM LESTER 1980-09-23 15:00:00 TS 17.4553 -109.818 main 532 532 P________PP___ EP121980 17.4500 -109.823 TS 35 0 17.4500 -109.823 TC 35 17.4764 -109.802 2 35 4 286
1980266N16257 1980 80 EP MM LESTER 1980-09-23 18:00:00 TS 17.5075 -109.994 35 hurdat_epa main 550 550 O________OP___ hurdat_epa EP121980 17.5000 -110.000 TS 35 0 17.5000 -110.000 TC 35 17.5373 -109.968 2 35 3 293
1980266N16257 1980 80 EP MM LESTER 1980-09-23 21:00:00 TS 17.5679 -110.100 main 553 553 P________PP___ EP121980 17.5649 -110.100 TS 35 0 17.5649 -110.100 TC 35 17.5796 -110.099 2 35 2 295
1980266N16257 1980 80 EP MM LESTER 1980-09-24 00:00:00 TS 17.6000 -110.200 35 hurdat_epa main 562 562 O________OO___ hurdat_epa EP121980 17.6000 -110.200 TS 35 0 17.6000 -110.200 TC 35 17.6000 -110.200 2 35 3 269
1980266N16257 1980 80 EP MM LESTER 1980-09-24 03:00:00 TS 17.5646 -110.405 main 581 581 P________PP___ EP121980 17.5576 -110.430 TS 35 0 17.5576 -110.430 TC 35 17.5924 -110.303 2 33 3 256
1980266N16257 1980 80 EP MM LESTER 1980-09-24 06:00:00 TS 17.5130 -110.555 35 hurdat_epa main 605 596 O________OP___ hurdat_epa EP121980 17.5000 -110.600 TS 35 0 17.5000 -110.600 TC 35 17.5649 -110.375 2 32 1 239
1980266N16257 1980 80 EP MM LESTER 1980-09-24 09:00:00 TS 17.5000 -110.518 main 596 586 P________PP___ EP121980 17.4925 -110.545 TS 32 -1 17.4925 -110.545 TC 32 17.5299 -110.409 2 31 1 95
1980266N16257 1980 80 EP MM LESTER 1980-09-24 12:00:00 TS 17.5000 -110.400 30 hurdat_epa main 586 577 O________OO___ hurdat_epa EP121980 17.5000 -110.400 TD 30 -1 17.5000 -110.400 TC 30 17.5000 -110.400 1 30 2 91
1980266N16257 1980 80 EP MM LESTER 1980-09-24 15:00:00 TS 17.4969 -110.309 main 577 568 P________PP___ EP121980 17.5000 -110.300 TD 30 -1 17.5000 -110.300 TC 30 17.4848 -110.344 1 28 2 91
1980266N16257 1980 80 EP MM LESTER 1980-09-24 18:00:00 TS 17.4965 -110.210 30 hurdat_epa main 568 559 O________OP___ hurdat_epa EP121980 17.5000 -110.200 TD 30 -1 17.5000 -110.200 TC 30 17.4826 -110.250 1 27 2 90
1980266N16257 1980 80 EP MM LESTER 1980-09-24 21:00:00 TS 17.4978 -110.106 main 559 550 P________PP___ EP121980 17.5000 -110.100 TD 27 -1 17.5000 -110.100 TC 27 17.4892 -110.131 1 26 2 89
1980266N16257 1980 80 EP MM LESTER 1980-09-25 00:00:00 TS 17.5000 -110.000 25 hurdat_epa main 550 O________OO___ hurdat_epa EP121980 17.5000 -110.000 TD 25 -1 17.5000 -110.000 TC 25 17.5000 -110.000 1 25 2 89

About IBTrACS Database

This database is a web-friendly format of International Best Track Archive for Climate Stewardship (IBTrACS), a global best track data archive curated by NOAA dating back to 1842.

Updated: 2021-10-08